Time;durP1;ratioP1;P1;durP2;ratioP2;P2;SDS_P1;SDS_P2;PMS_P1;PMS_P2;Temp;Humidity;BMP_temperature;BMP_pressure;BME280_temperature;BME280_humidity;BME280_pressure;Samples;Min_cycle;Max_cycle;Signal;HPM_P1;HPM_P2
2022/02/11 00:08:09;;;;;;;49.03;28.10;;;2.70;99.90;;;;;;5045037;28;20053;-72
2022/02/11 00:10:34;;;;;;;61.45;41.47;;;2.70;99.90;;;;;;5041718;28;20049;-72
2022/02/11 00:13:02;;;;;;;37.60;21.50;;;2.60;99.90;;;;;;5040844;28;20042;-72
2022/02/11 00:17:56;;;;;;;77.57;44.35;;;2.70;99.90;;;;;;5044666;28;20050;-72
2022/02/11 00:20:23;;;;;;;117.25;69.10;;;2.60;99.90;;;;;;5044970;28;20040;-72
2022/02/11 00:22:48;;;;;;;32.45;14.55;;;2.60;99.90;;;;;;5034990;28;20124;-72
2022/02/11 00:25:15;;;;;;;36.30;16.42;;;2.60;99.90;;;;;;5044706;28;20184;-72
2022/02/11 00:31:07;;;;;;;67.05;39.42;;;2.70;99.90;;;;;;5062471;28;20771;-72
2022/02/11 00:35:51;;;;;;;33.10;16.95;;;2.90;99.90;;;;;;5036559;28;20063;-72
2022/02/11 00:38:23;;;;;;;81.85;47.83;;;3.00;99.90;;;;;;5038376;28;20065;-72
2022/02/11 01:02:15;;;;;;;10.68;2.92;;;3.60;99.90;;;;;;5046261;28;20494;-72
2022/02/11 01:04:41;;;;;;;10.13;3.17;;;3.70;99.90;;;;;;5044336;28;20387;-72
2022/02/11 01:07:08;;;;;;;13.77;4.05;;;3.80;99.90;;;;;;5042750;28;20066;-72
2022/02/11 01:09:34;;;;;;;11.77;3.70;;;3.70;99.90;;;;;;5033263;28;20051;-72
2022/02/11 01:12:03;;;;;;;10.73;2.83;;;3.70;99.90;;;;;;5047244;28;20090;-72
2022/02/11 01:14:34;;;;;;;10.05;3.38;;;3.70;99.90;;;;;;5059861;28;20052;-72
2022/02/11 01:25:27;;;;;;;10.45;3.20;;;3.50;99.90;;;;;;5043593;28;20044;-72
2022/02/11 01:33:24;;;;;;;8.20;3.00;;;3.50;99.90;;;;;;5040850;28;20124;-72
2022/02/11 01:38:31;;;;;;;10.95;2.80;;;3.40;99.90;;;;;;5036150;28;20045;-72
2022/02/11 01:46:34;;;;;;;12.43;2.83;;;3.40;99.90;;;;;;5034211;28;20049;-73
2022/02/11 01:49:21;;;;;;;10.02;2.67;;;3.60;99.90;;;;;;5042645;28;20059;-72
2022/02/11 01:51:56;;;;;;;12.52;2.88;;;3.60;99.90;;;;;;5047613;28;20055;-73
2022/02/11 01:57:01;;;;;;;10.80;3.10;;;3.80;99.90;;;;;;5048238;28;20041;-72
2022/02/11 02:00:04;;;;;;;8.98;2.85;;;3.90;99.90;;;;;;5030422;28;20089;-73
2022/02/11 02:11:05;;;;;;;13.23;2.90;;;4.20;99.90;;;;;;5045763;28;20053;-73
2022/02/11 02:16:02;;;;;;;14.63;3.50;;;4.20;99.90;;;;;;5048415;28;20606;-73
2022/02/11 02:34:17;;;;;;;11.93;3.45;;;4.40;99.90;;;;;;5041719;28;20037;-74
2022/02/11 02:37:09;;;;;;;15.70;2.85;;;4.40;99.90;;;;;;5035089;28;20057;-73
2022/02/11 02:56:36;;;;;;;11.20;2.50;;;4.50;99.90;;;;;;5042311;28;20048;-74
2022/02/11 02:56:55;;;;;;;10.95;2.55;;;4.60;99.90;;;;;;5049274;28;20098;-74
2022/02/11 02:59:34;;;;;;;11.18;2.50;;;4.70;99.90;;;;;;5035296;28;20082;-73
2022/02/11 03:02:08;;;;;;;16.58;2.70;;;4.80;99.90;;;;;;5048163;28;20505;-74
2022/02/11 03:35:03;;;;;;;19.30;2.40;;;5.50;99.90;;;;;;5051373;28;20106;-74
2022/02/11 04:55:53;;;;;;;9.98;1.63;;;5.60;99.90;;;;;;5050969;28;20045;-72
2022/02/11 05:01:04;;;;;;;6.70;2.05;;;5.50;99.90;;;;;;5042392;28;20057;-73
2022/02/11 05:03:29;;;;;;;10.45;2.08;;;5.40;99.90;;;;;;5046743;28;20048;-73
2022/02/11 05:05:55;;;;;;;11.13;2.85;;;5.30;99.90;;;;;;5048904;28;20107;-72
2022/02/11 05:08:23;;;;;;;14.95;2.30;;;5.50;99.90;;;;;;5029108;28;20044;-72
2022/02/11 05:10:51;;;;;;;11.30;1.70;;;5.40;99.90;;;;;;5029355;28;20037;-72
2022/02/11 05:13:17;;;;;;;10.50;1.65;;;5.30;99.90;;;;;;5045795;28;20116;-73
2022/02/11 05:15:43;;;;;;;11.88;1.67;;;5.30;99.90;;;;;;5027585;28;20128;-72
2022/02/11 05:18:09;;;;;;;12.07;1.98;;;5.30;99.90;;;;;;5039314;28;20128;-72
2022/02/11 05:20:35;;;;;;;11.00;1.73;;;5.30;99.90;;;;;;5033465;28;20037;-72
2022/02/11 05:23:08;;;;;;;8.27;1.50;;;5.50;99.90;;;;;;5039846;28;20041;-72
2022/02/11 05:25:37;;;;;;;11.30;2.28;;;5.40;99.90;;;;;;5063488;28;20390;-72
2022/02/11 05:28:04;;;;;;;7.65;1.40;;;5.30;99.90;;;;;;5041367;28;20048;-72
2022/02/11 05:30:30;;;;;;;12.77;1.80;;;5.40;99.90;;;;;;5044396;28;20068;-74
2022/02/11 05:32:56;;;;;;;8.77;1.50;;;5.30;99.90;;;;;;5048037;28;20094;-73
2022/02/11 05:35:22;;;;;;;9.57;1.52;;;5.30;99.90;;;;;;5040552;28;20040;-73
2022/02/11 05:37:49;;;;;;;11.80;1.80;;;5.30;99.90;;;;;;5046303;28;20068;-73
2022/02/11 05:40:15;;;;;;;12.50;2.35;;;5.40;99.90;;;;;;5061313;28;20053;-72
2022/02/11 05:42:40;;;;;;;15.38;2.28;;;5.40;99.90;;;;;;5043815;28;20044;-72
2022/02/11 05:45:06;;;;;;;9.93;1.98;;;5.30;99.90;;;;;;5041539;28;20049;-72
2022/02/11 05:47:32;;;;;;;7.63;2.00;;;5.30;99.90;;;;;;5046483;28;20047;-73
2022/02/11 05:49:57;;;;;;;8.90;2.95;;;5.40;99.90;;;;;;5044536;28;20071;-73
2022/02/11 05:52:24;;;;;;;12.05;2.28;;;5.40;99.90;;;;;;5047213;28;20036;-72
2022/02/11 05:54:49;;;;;;;10.60;2.30;;;5.30;99.90;;;;;;5046631;28;20037;-73
2022/02/11 05:57:15;;;;;;;14.65;2.88;;;5.40;99.90;;;;;;5049007;28;20043;-73
2022/02/11 05:59:40;;;;;;;19.15;3.30;;;5.50;99.90;;;;;;5049917;28;20073;-73
2022/02/11 06:02:06;;;;;;;13.48;2.28;;;5.50;99.90;;;;;;5048287;28;20049;-73
2022/02/11 06:04:32;;;;;;;16.80;3.05;;;5.40;99.90;;;;;;5049239;28;20044;-73
2022/02/11 06:06:58;;;;;;;10.80;1.90;;;5.40;99.90;;;;;;5039734;28;20076;-72
2022/02/11 06:09:24;;;;;;;20.67;2.83;;;5.40;99.90;;;;;;5045974;28;20094;-72
2022/02/11 06:11:50;;;;;;;16.27;2.78;;;5.40;99.90;;;;;;5048540;28;20124;-73
2022/02/11 06:14:17;;;;;;;17.23;2.72;;;5.40;99.90;;;;;;5043558;28;20056;-72
2022/02/11 06:16:42;;;;;;;13.20;2.50;;;5.50;99.90;;;;;;5040835;28;20094;-73
2022/02/11 06:19:08;;;;;;;16.33;2.20;;;5.60;99.90;;;;;;5044265;28;20037;-73
2022/02/11 06:21:34;;;;;;;13.35;2.28;;;5.40;99.90;;;;;;5041723;28;20052;-73
2022/02/11 06:23:59;;;;;;;12.18;2.70;;;5.50;99.90;;;;;;5035234;28;20033;-73
2022/02/11 06:26:26;;;;;;;8.30;1.83;;;5.50;99.90;;;;;;5030916;28;20430;-73
2022/02/11 06:28:52;;;;;;;8.23;1.70;;;5.40;99.90;;;;;;5048165;28;20041;-73
2022/02/11 06:31:18;;;;;;;8.73;1.50;;;5.50;99.90;;;;;;5043188;28;20086;-73
2022/02/11 06:33:44;;;;;;;9.27;2.03;;;5.50;99.90;;;;;;5047126;28;20033;-72
2022/02/11 06:36:10;;;;;;;16.60;2.55;;;5.40;99.90;;;;;;5047195;28;20033;-73
2022/02/11 06:38:36;;;;;;;10.02;1.98;;;5.30;99.90;;;;;;5038948;28;20502;-73
2022/02/11 06:41:02;;;;;;;20.10;3.35;;;5.30;99.90;;;;;;5043583;28;20120;-72
2022/02/11 06:43:28;;;;;;;12.90;1.92;;;5.20;99.90;;;;;;5039224;28;20037;-73
2022/02/11 06:45:53;;;;;;;14.20;2.60;;;5.40;99.90;;;;;;5028311;28;20037;-73
2022/02/11 06:48:23;;;;;;;19.17;3.90;;;5.30;99.90;;;;;;5031373;28;20045;-72
2022/02/11 06:50:50;;;;;;;14.43;2.30;;;5.20;99.90;;;;;;5062696;28;20120;-73
2022/02/11 06:53:16;;;;;;;15.73;2.92;;;5.20;99.90;;;;;;5045037;28;20041;-72
2022/02/11 06:55:42;;;;;;;10.40;2.40;;;5.20;99.90;;;;;;5042928;28;20034;-73
2022/02/11 06:58:08;;;;;;;9.55;2.05;;;5.20;99.90;;;;;;5049521;28;20116;-72
2022/02/11 07:00:34;;;;;;;10.80;1.98;;;5.20;99.90;;;;;;5033884;28;20166;-73
2022/02/11 07:03:00;;;;;;;15.57;2.78;;;5.30;99.90;;;;;;5048268;28;20056;-72
2022/02/11 07:05:27;;;;;;;15.20;2.28;;;5.20;99.90;;;;;;5044962;28;20041;-72
2022/02/11 07:07:54;;;;;;;12.13;2.20;;;5.20;99.90;;;;;;5035045;28;20410;-72
2022/02/11 07:10:20;;;;;;;11.27;2.15;;;5.40;99.90;;;;;;5046392;28;20060;-73
2022/02/11 07:12:46;;;;;;;10.70;1.83;;;5.30;99.90;;;;;;5041031;28;20131;-72
2022/02/11 07:15:12;;;;;;;9.00;1.73;;;5.30;99.90;;;;;;5041978;28;20541;-72
2022/02/11 07:17:38;;;;;;;12.23;1.90;;;5.30;99.90;;;;;;5065678;28;20033;-72
2022/02/11 07:20:05;;;;;;;11.80;1.90;;;5.40;99.90;;;;;;5038666;28;20076;-73
2022/02/11 07:22:34;;;;;;;14.15;2.15;;;5.30;99.90;;;;;;5040068;28;20045;-72
2022/02/11 07:25:12;;;;;;;9.65;2.10;;;5.20;99.90;;;;;;5031972;28;20073;-72
2022/02/11 07:27:38;;;;;;;9.75;2.03;;;5.10;99.90;;;;;;5051679;28;20037;-72
2022/02/11 07:30:05;;;;;;;9.85;1.95;;;5.20;99.90;;;;;;5050098;28;20074;-74
2022/02/11 07:32:31;;;;;;;12.15;1.50;;;5.10;99.90;;;;;;5044921;28;20072;-72
2022/02/11 07:35:03;;;;;;;16.35;2.50;;;5.10;99.90;;;;;;5048541;28;20524;-72
2022/02/11 07:37:30;;;;;;;15.32;2.00;;;4.90;99.90;;;;;;5040137;28;20037;-73
2022/02/11 07:39:57;;;;;;;11.05;2.40;;;5.10;99.90;;;;;;5046880;28;20036;-73
2022/02/11 07:42:23;;;;;;;8.65;1.55;;;4.80;99.90;;;;;;5031527;28;20463;-72
2022/02/11 07:44:49;;;;;;;6.70;1.40;;;4.80;99.90;;;;;;5046472;28;20095;-72
2022/02/11 07:47:15;;;;;;;11.35;1.95;;;4.90;99.90;;;;;;5048437;28;20052;-72
2022/02/11 07:49:41;;;;;;;14.10;1.85;;;4.90;99.90;;;;;;5051950;28;20095;-72
2022/02/11 07:52:07;;;;;;;9.02;1.38;;;4.90;99.90;;;;;;5041296;28;20087;-73
2022/02/11 07:54:32;;;;;;;10.35;2.08;;;4.90;99.90;;;;;;5047874;28;20036;-71
2022/02/11 07:56:58;;;;;;;11.52;1.85;;;5.00;99.90;;;;;;5035675;28;20652;-73
2022/02/11 07:59:24;;;;;;;11.43;2.00;;;5.00;99.90;;;;;;5026011;28;20083;-72
2022/02/11 08:01:49;;;;;;;12.43;2.05;;;5.10;99.90;;;;;;5045097;28;20083;-72
2022/02/11 08:04:15;;;;;;;10.10;1.40;;;5.00;99.90;;;;;;5049880;28;20037;-71
2022/02/11 08:06:41;;;;;;;8.27;1.65;;;5.10;99.90;;;;;;5047056;28;20467;-72
2022/02/11 08:09:07;;;;;;;8.68;1.95;;;5.00;99.90;;;;;;5046055;28;20040;-72
2022/02/11 08:11:32;;;;;;;7.55;1.52;;;5.00;99.90;;;;;;5036662;28;20046;-73
2022/02/11 08:13:58;;;;;;;11.75;1.85;;;4.90;99.90;;;;;;5035524;28;20055;-72
2022/02/11 08:16:24;;;;;;;9.68;1.67;;;4.80;99.90;;;;;;5045443;28;20414;-72
2022/02/11 08:18:50;;;;;;;11.73;2.40;;;4.80;99.90;;;;;;5048157;28;20037;-71
2022/02/11 08:21:15;;;;;;;18.20;2.90;;;4.80;99.90;;;;;;5051785;22;20053;-71
2022/02/11 08:23:42;;;;;;;11.65;2.33;;;4.70;99.90;;;;;;5045548;28;20490;-71
2022/02/11 08:26:08;;;;;;;12.63;2.58;;;4.80;99.90;;;;;;5044114;28;20033;-71
2022/02/11 08:28:34;;;;;;;8.48;1.75;;;4.90;99.90;;;;;;5041850;28;20127;-72
2022/02/11 08:30:59;;;;;;;15.45;2.22;;;5.10;99.90;;;;;;5023867;28;20180;-71
2022/02/11 08:33:25;;;;;;;15.82;2.83;;;5.10;99.90;;;;;;5042738;28;20098;-71
2022/02/11 08:35:56;;;;;;;13.00;2.70;;;5.20;99.90;;;;;;5044089;28;20041;-71
2022/02/11 08:38:23;;;;;;;10.00;2.03;;;5.10;99.90;;;;;;5044443;28;20041;-72
2022/02/11 08:40:49;;;;;;;13.80;2.42;;;5.30;99.90;;;;;;5039380;28;20080;-71
2022/02/11 08:43:16;;;;;;;17.65;3.13;;;5.20;99.90;;;;;;5018972;28;20065;-70
2022/02/11 08:45:42;;;;;;;13.82;2.75;;;5.20;99.90;;;;;;5058359;28;20429;-71
2022/02/11 08:48:09;;;;;;;12.63;2.42;;;5.30;99.90;;;;;;5036981;28;20037;-71
2022/02/11 08:50:35;;;;;;;10.95;1.65;;;5.20;99.90;;;;;;5034291;28;20045;-71
2022/02/11 08:53:02;;;;;;;17.13;2.70;;;5.40;99.90;;;;;;5033654;28;20052;-71
2022/02/11 08:55:27;;;;;;;16.35;3.10;;;5.30;99.90;;;;;;5050674;28;20061;-70
2022/02/11 08:57:53;;;;;;;15.07;3.30;;;5.40;99.90;;;;;;5031226;28;20178;-71
2022/02/11 09:00:19;;;;;;;16.35;2.85;;;5.40;99.90;;;;;;5050230;28;20055;-71
2022/02/11 09:02:45;;;;;;;19.85;3.80;;;5.50;99.90;;;;;;5050764;28;20048;-71
2022/02/11 09:05:12;;;;;;;20.05;3.40;;;5.40;99.90;;;;;;5047196;28;20060;-71
2022/02/11 09:07:38;;;;;;;24.40;3.55;;;5.50;99.90;;;;;;5046297;28;20041;-71
2022/02/11 09:10:07;;;;;;;17.88;4.20;;;5.70;99.90;;;;;;5050219;28;20486;-71
2022/02/11 09:12:33;;;;;;;18.27;4.07;;;5.70;99.90;;;;;;5049895;28;20420;-71
2022/02/11 09:14:59;;;;;;;18.85;4.00;;;5.70;99.90;;;;;;5049289;28;20041;-71
2022/02/11 09:17:25;;;;;;;18.77;3.38;;;5.70;99.90;;;;;;5049893;28;20082;-71
2022/02/11 09:19:52;;;;;;;21.20;2.97;;;5.90;99.90;;;;;;5043685;28;20037;-71
2022/02/11 09:22:18;;;;;;;25.88;3.60;;;5.80;99.90;;;;;;5039241;28;20447;-71
2022/02/11 09:24:44;;;;;;;15.55;2.78;;;5.70;99.90;;;;;;5065187;28;21953;-71
2022/02/11 09:27:09;;;;;;;19.33;3.55;;;5.70;99.90;;;;;;5038300;28;20041;-71
2022/02/11 09:29:35;;;;;;;17.10;3.58;;;5.60;99.90;;;;;;5027826;28;20037;-71
2022/02/11 09:32:00;;;;;;;13.70;2.42;;;5.30;99.90;;;;;;5045537;28;20041;-72
2022/02/11 09:34:26;;;;;;;17.42;2.40;;;5.40;99.90;;;;;;5046234;28;20033;-71
2022/02/11 09:36:52;;;;;;;17.50;2.88;;;5.40;99.90;;;;;;5044897;28;20171;-71
2022/02/11 09:39:18;;;;;;;14.40;2.58;;;5.30;99.90;;;;;;5047874;28;20399;-71
2022/02/11 09:41:45;;;;;;;15.43;3.03;;;5.30;99.90;;;;;;5045721;28;20037;-71
2022/02/11 09:44:13;;;;;;;18.38;3.20;;;5.30;99.90;;;;;;5037499;28;20041;-71
2022/02/11 09:46:39;;;;;;;15.23;3.03;;;5.30;99.90;;;;;;5035614;28;20049;-71
2022/02/11 09:49:06;;;;;;;17.45;3.33;;;5.40;99.90;;;;;;5037158;28;20055;-71
2022/02/11 09:51:33;;;;;;;15.63;3.33;;;5.60;99.90;;;;;;5041334;28;20037;-72
2022/02/11 09:54:00;;;;;;;15.55;2.60;;;5.80;99.90;;;;;;5041501;28;20124;-71
2022/02/11 09:56:25;;;;;;;15.77;3.08;;;5.90;99.90;;;;;;5023153;28;20041;-72
2022/02/11 09:58:52;;;;;;;18.15;3.35;;;6.00;99.90;;;;;;5065381;28;20102;-71
2022/02/11 10:01:21;;;;;;;17.23;3.05;;;6.10;99.90;;;;;;5043502;28;20036;-71
2022/02/11 10:04:25;;;;;;;14.85;2.83;;;6.20;99.90;;;;;;5049241;28;20045;-71
2022/02/11 10:06:52;;;;;;;19.02;3.10;;;6.50;99.90;;;;;;5047680;28;20044;-71
2022/02/11 10:09:21;;;;;;;9.90;1.95;;;6.60;99.90;;;;;;5050422;28;20112;-71
2022/02/11 10:11:47;;;;;;;12.60;2.85;;;6.70;99.90;;;;;;5043256;28;20041;-71
2022/02/11 10:14:33;;;;;;;19.20;2.70;;;6.40;99.90;;;;;;5039878;28;20052;-71
2022/02/11 10:17:05;;;;;;;19.33;3.42;;;6.50;99.90;;;;;;5037553;28;20049;-71
2022/02/11 10:19:37;;;;;;;9.95;2.85;;;6.60;99.90;;;;;;5042790;28;20048;-72
2022/02/11 10:22:09;;;;;;;10.70;1.75;;;6.40;99.90;;;;;;5046687;28;20045;-72
2022/02/11 10:24:34;;;;;;;22.25;3.72;;;6.20;99.90;;;;;;5060402;28;20521;-71
2022/02/11 10:27:00;;;;;;;14.98;3.28;;;6.10;99.90;;;;;;5048507;28;20041;-71
2022/02/11 10:29:39;;;;;;;18.08;3.42;;;5.90;99.90;;;;;;5030048;28;20041;-72
2022/02/11 10:32:05;;;;;;;18.10;3.08;;;5.70;99.90;;;;;;5039900;28;20025;-71
2022/02/11 10:34:32;;;;;;;13.20;2.80;;;5.50;99.90;;;;;;5045459;28;20059;-73
2022/02/11 10:36:58;;;;;;;21.40;3.80;;;5.60;99.90;;;;;;5066413;28;20036;-73
2022/02/11 10:39:26;;;;;;;13.85;2.78;;;5.30;99.90;;;;;;5046965;28;20041;-73
2022/02/11 10:41:53;;;;;;;16.02;3.13;;;5.10;99.90;;;;;;5041753;28;20148;-73
2022/02/11 10:44:29;;;;;;;18.75;3.33;;;5.10;99.90;;;;;;5048471;28;20044;-74
2022/02/11 10:47:02;;;;;;;18.92;3.13;;;5.20;99.90;;;;;;5066525;28;20120;-73
2022/02/11 10:49:42;;;;;;;21.20;3.67;;;5.20;99.90;;;;;;5062840;28;20045;-74
2022/02/11 10:52:19;;;;;;;10.48;2.08;;;5.20;99.90;;;;;;5046229;28;20033;-74
2022/02/11 10:54:46;;;;;;;11.82;2.10;;;5.30;99.90;;;;;;5042706;28;20041;-74
2022/02/11 10:57:14;;;;;;;7.57;1.80;;;5.20;99.90;;;;;;5031323;28;20098;-74
2022/02/11 10:59:41;;;;;;;14.98;3.05;;;5.30;99.90;;;;;;5046242;28;20462;-74
2022/02/11 11:02:16;;;;;;;17.70;2.75;;;5.10;99.90;;;;;;5042650;28;20617;-74
2022/02/11 11:04:41;;;;;;;17.38;2.90;;;5.00;99.90;;;;;;5042212;28;20045;-75
2022/02/11 11:07:07;;;;;;;24.08;2.80;;;5.00;99.90;;;;;;5048251;28;20039;-74
2022/02/11 11:09:35;;;;;;;18.73;2.60;;;5.00;99.90;;;;;;5042379;28;20125;-74
2022/02/11 11:12:03;;;;;;;14.65;2.55;;;5.10;99.90;;;;;;5065283;28;20033;-75
2022/02/11 11:14:29;;;;;;;16.55;2.75;;;5.10;99.90;;;;;;5044745;28;20489;-74
2022/02/11 11:16:58;;;;;;;19.52;2.80;;;5.10;99.90;;;;;;5062551;28;20030;-74
2022/02/11 11:19:25;;;;;;;12.50;2.90;;;5.20;99.90;;;;;;5027995;28;20049;-73
2022/02/11 11:22:11;;;;;;;17.38;3.83;;;5.30;99.90;;;;;;5052194;28;20061;-73
2022/02/11 11:24:50;;;;;;;12.82;2.78;;;5.40;99.90;;;;;;5067307;28;20049;-73
2022/02/11 11:27:42;;;;;;;11.18;1.98;;;5.60;99.90;;;;;;5050890;28;20051;-74
2022/02/11 11:30:32;;;;;;;9.90;2.00;;;5.70;99.90;;;;;;5051846;28;20551;-73
2022/02/11 11:33:06;;;;;;;10.48;1.88;;;5.90;99.90;;;;;;5049932;28;20044;-74
2022/02/11 11:35:36;;;;;;;9.80;1.70;;;5.80;99.90;;;;;;5040897;28;20065;-73
2022/02/11 11:38:20;;;;;;;11.85;1.95;;;5.90;99.90;;;;;;5051588;28;20048;-73
2022/02/11 11:41:04;;;;;;;8.93;1.85;;;5.90;99.90;;;;;;5068610;28;20060;-74
2022/02/11 11:43:56;;;;;;;13.10;1.90;;;5.80;99.90;;;;;;5050131;28;20099;-73
2022/02/11 11:46:30;;;;;;;11.82;1.80;;;5.80;99.90;;;;;;5056687;28;20094;-73
2022/02/11 11:49:05;;;;;;;13.82;2.03;;;6.00;99.90;;;;;;5032064;28;20036;-73
2022/02/11 11:51:51;;;;;;;8.73;1.70;;;6.30;99.90;;;;;;5045473;28;20045;-73
2022/02/11 11:54:17;;;;;;;7.47;1.67;;;6.50;99.90;;;;;;5043015;28;20037;-73
2022/02/11 11:56:53;;;;;;;11.57;2.17;;;6.80;99.90;;;;;;5044526;28;20430;-73
2022/02/11 11:59:19;;;;;;;14.48;2.28;;;7.00;99.90;;;;;;5046054;28;20033;-73
2022/02/11 12:02:04;;;;;;;7.95;2.13;;;7.10;99.90;;;;;;5026472;28;20036;-73
2022/02/11 12:04:46;;;;;;;14.25;3.05;;;7.10;99.90;;;;;;5050953;28;20056;-73
2022/02/11 12:07:14;;;;;;;11.87;2.17;;;6.90;99.90;;;;;;5034760;28;20534;-73
2022/02/11 12:09:42;;;;;;;15.57;2.28;;;6.80;99.90;;;;;;5049764;28;20040;-72
2022/02/11 12:12:10;;;;;;;17.05;2.75;;;6.60;99.90;;;;;;5051264;28;20032;-74
2022/02/11 12:14:37;;;;;;;10.90;2.33;;;6.50;99.90;;;;;;5065219;28;20082;-73
2022/02/11 12:17:05;;;;;;;10.15;2.50;;;6.50;99.90;;;;;;5031424;28;20044;-73
2022/02/11 12:19:33;;;;;;;14.23;2.22;;;6.30;99.90;;;;;;5034290;28;20486;-73
2022/02/11 12:22:00;;;;;;;15.10;2.63;;;6.20;99.90;;;;;;5033012;28;20064;-73
2022/02/11 12:27:20;;;;;;;12.60;2.08;;;6.40;99.90;;;;;;5037686;28;20599;-73
2022/02/11 12:29:56;;;;;;;14.40;2.53;;;6.40;99.90;;;;;;5051228;28;20071;-73
2022/02/11 12:32:33;;;;;;;11.05;2.38;;;6.50;99.90;;;;;;5041293;28;20091;-73
2022/02/11 12:35:01;;;;;;;12.43;2.17;;;6.60;99.90;;;;;;5036466;28;20041;-73
2022/02/11 12:37:28;;;;;;;9.80;1.75;;;6.60;99.90;;;;;;5043981;28;20517;-73
2022/02/11 12:40:06;;;;;;;12.93;2.15;;;6.80;99.90;;;;;;5039415;28;20108;-73
2022/02/11 12:42:32;;;;;;;10.30;1.67;;;6.70;99.90;;;;;;5043420;28;20391;-74
2022/02/11 12:44:59;;;;;;;8.27;2.17;;;6.80;99.90;;;;;;5021400;28;20050;-74
2022/02/11 12:47:24;;;;;;;10.70;1.90;;;6.90;99.90;;;;;;5037551;28;20119;-75
2022/02/11 12:49:54;;;;;;;10.00;2.03;;;7.00;99.90;;;;;;5042652;28;20467;-75
2022/02/11 12:52:24;;;;;;;12.68;2.53;;;6.90;99.90;;;;;;5060792;28;20037;-73
2022/02/11 12:55:12;;;;;;;10.70;1.95;;;6.80;99.90;;;;;;5044514;28;20804;-74
2022/02/11 12:57:40;;;;;;;11.57;1.88;;;6.90;99.90;;;;;;5044009;28;20029;-74
2022/02/11 13:00:08;;;;;;;5.85;1.63;;;6.90;99.90;;;;;;5039309;28;20041;-74
2022/02/11 13:02:36;;;;;;;11.70;2.03;;;7.10;99.90;;;;;;5030729;28;20037;-73
2022/02/11 13:05:08;;;;;;;6.15;1.05;;;7.20;99.90;;;;;;5049201;28;20050;-74
2022/02/11 13:07:35;;;;;;;10.15;1.77;;;7.40;99.90;;;;;;5065311;28;20131;-74
2022/02/11 13:10:02;;;;;;;8.35;1.35;;;7.60;99.90;;;;;;5047979;28;20037;-74
2022/02/11 13:12:39;;;;;;;10.00;1.70;;;7.50;99.90;;;;;;5044158;28;20049;-74
2022/02/11 13:15:07;;;;;;;9.18;1.25;;;7.30;99.90;;;;;;5043582;28;20042;-74
2022/02/11 13:17:32;;;;;;;12.02;2.00;;;7.50;99.90;;;;;;5048184;28;20559;-75
2022/02/11 13:20:09;;;;;;;9.00;1.58;;;7.40;99.90;;;;;;5050163;28;20041;-74
2022/02/11 13:22:36;;;;;;;11.90;1.90;;;7.20;99.90;;;;;;5047739;28;20045;-74
2022/02/11 13:25:02;;;;;;;8.15;1.10;;;7.10;99.90;;;;;;5033728;28;20049;-74
2022/02/11 13:27:42;;;;;;;9.48;1.83;;;7.00;99.90;;;;;;5047989;28;20048;-74
2022/02/11 13:30:09;;;;;;;8.57;1.35;;;7.10;99.90;;;;;;5044253;28;20088;-74
2022/02/11 13:32:35;;;;;;;6.90;1.58;;;7.10;99.90;;;;;;5042649;28;20041;-74
2022/02/11 13:35:02;;;;;;;7.63;2.28;;;7.10;99.90;;;;;;5059288;28;20053;-74
2022/02/11 13:37:42;;;;;;;8.00;1.48;;;7.00;99.90;;;;;;5047939;28;20047;-74
2022/02/11 13:40:18;;;;;;;10.45;2.08;;;7.00;99.90;;;;;;5032093;28;20041;-74
2022/02/11 13:43:04;;;;;;;7.80;1.38;;;7.00;99.90;;;;;;5030881;28;20041;-74
2022/02/11 13:45:55;;;;;;;4.75;1.20;;;7.10;99.90;;;;;;5061609;28;20036;-74
2022/02/11 13:48:23;;;;;;;9.57;1.45;;;7.30;99.90;;;;;;5042971;28;20029;-73
2022/02/11 13:51:05;;;;;;;11.43;1.83;;;7.50;99.90;;;;;;5041089;28;20403;-75
2022/02/11 13:53:38;;;;;;;5.65;1.30;;;7.40;99.90;;;;;;5063731;28;20037;-74
2022/02/11 13:56:07;;;;;;;8.77;2.00;;;7.40;99.90;;;;;;5047037;28;20036;-74
2022/02/11 13:58:33;;;;;;;6.00;1.30;;;7.40;99.90;;;;;;5040417;28;20051;-74
2022/02/11 14:01:00;;;;;;;7.90;1.90;;;7.30;99.90;;;;;;5062932;28;20052;-74
2022/02/11 14:03:31;;;;;;;5.15;1.23;;;7.30;99.90;;;;;;5046745;28;20098;-74
2022/02/11 14:06:01;;;;;;;9.02;1.60;;;7.40;99.90;;;;;;5040090;28;20042;-74
2022/02/11 14:08:45;;;;;;;8.85;1.92;;;7.30;99.90;;;;;;5044286;28;20037;-74
2022/02/11 14:11:16;;;;;;;10.05;1.58;;;7.20;99.90;;;;;;5062802;28;20139;-71
2022/02/11 14:13:42;;;;;;;8.75;1.33;;;7.20;99.90;;;;;;5040519;28;20045;-71
2022/02/11 14:16:08;;;;;;;8.73;1.35;;;7.20;99.90;;;;;;5046921;28;20048;-73
2022/02/11 14:18:38;;;;;;;8.05;1.42;;;7.20;99.90;;;;;;5043288;28;20082;-72
2022/02/11 14:21:04;;;;;;;8.77;1.60;;;7.10;99.90;;;;;;5046002;28;20087;-72
2022/02/11 14:23:31;;;;;;;8.73;1.67;;;7.20;99.90;;;;;;5045536;28;20076;-73
2022/02/11 14:25:56;;;;;;;10.23;1.60;;;7.10;99.90;;;;;;5049287;28;20077;-73
2022/02/11 14:28:25;;;;;;;9.85;1.85;;;7.20;99.90;;;;;;5026556;28;20076;-72
2022/02/11 14:30:50;;;;;;;10.20;2.13;;;7.10;99.90;;;;;;5045498;28;20640;-73
2022/02/11 14:33:16;;;;;;;7.47;1.80;;;7.00;99.90;;;;;;5046216;28;20068;-73
2022/02/11 14:35:42;;;;;;;8.15;1.35;;;7.00;99.90;;;;;;5044883;28;20348;-72
2022/02/11 14:38:08;;;;;;;8.15;1.73;;;7.00;99.90;;;;;;5047709;28;20111;-72
2022/02/11 14:40:34;;;;;;;9.63;1.80;;;6.80;99.90;;;;;;5041736;28;20045;-72
2022/02/11 14:43:03;;;;;;;6.68;1.67;;;6.80;99.90;;;;;;5046606;28;20148;-72
2022/02/11 14:45:29;;;;;;;8.20;1.70;;;6.80;99.90;;;;;;5045470;28;20053;-72
2022/02/11 14:47:55;;;;;;;6.75;1.48;;;6.60;99.90;;;;;;5045280;28;20041;-73
2022/02/11 14:50:21;;;;;;;8.73;1.50;;;6.60;99.90;;;;;;5042820;28;20061;-73
2022/02/11 14:52:47;;;;;;;8.35;1.60;;;6.50;99.90;;;;;;5059943;28;20098;-73
2022/02/11 14:55:13;;;;;;;11.93;2.00;;;6.60;99.90;;;;;;5060891;28;20025;-73
2022/02/11 14:57:38;;;;;;;6.82;1.35;;;6.60;99.90;;;;;;5041991;28;20445;-72
2022/02/11 15:00:05;;;;;;;8.10;1.58;;;6.60;99.90;;;;;;5044094;28;20037;-72
2022/02/11 15:02:32;;;;;;;7.38;1.60;;;6.60;99.90;;;;;;5051077;28;20068;-72
2022/02/11 15:04:58;;;;;;;8.98;1.67;;;6.50;99.90;;;;;;5065740;28;20429;-71
2022/02/11 15:07:23;;;;;;;9.52;1.85;;;6.40;99.90;;;;;;5041948;28;20029;-72
2022/02/11 15:09:49;;;;;;;8.90;1.63;;;6.50;99.90;;;;;;5042660;28;20041;-72
2022/02/11 15:12:14;;;;;;;6.78;1.45;;;6.40;99.90;;;;;;5044803;28;20032;-72
2022/02/11 15:14:40;;;;;;;8.18;1.75;;;6.40;99.90;;;;;;5028776;28;20087;-72
2022/02/11 15:17:05;;;;;;;12.38;2.15;;;6.30;99.90;;;;;;5043878;28;20040;-72
2022/02/11 15:19:31;;;;;;;11.35;1.83;;;6.40;99.90;;;;;;5046651;28;20065;-72
2022/02/11 15:21:57;;;;;;;12.73;2.08;;;6.40;99.90;;;;;;5040531;28;20057;-72
2022/02/11 15:24:22;;;;;;;10.13;1.95;;;6.30;99.90;;;;;;5049640;28;20531;-69
2022/02/11 15:26:48;;;;;;;9.05;1.95;;;6.30;99.90;;;;;;5049445;28;20048;-69
2022/02/11 15:29:13;;;;;;;10.15;1.67;;;6.30;99.90;;;;;;5065593;28;20037;-70
2022/02/11 15:31:40;;;;;;;10.38;1.75;;;6.20;99.90;;;;;;5051404;28;20039;-70
2022/02/11 15:34:06;;;;;;;8.90;2.13;;;6.10;99.90;;;;;;5046186;28;20041;-69
2022/02/11 15:36:32;;;;;;;9.32;1.83;;;6.00;99.90;;;;;;5025128;28;20044;-69
2022/02/11 15:38:58;;;;;;;9.23;1.55;;;6.00;99.90;;;;;;5066268;28;20112;-69
2022/02/11 15:41:24;;;;;;;9.35;1.35;;;5.80;99.90;;;;;;5045816;28;20076;-69
2022/02/11 15:43:49;;;;;;;9.57;1.80;;;5.80;99.90;;;;;;5045626;28;20068;-70
2022/02/11 15:46:15;;;;;;;7.57;1.48;;;5.70;99.90;;;;;;5042724;28;20132;-70
2022/02/11 15:48:41;;;;;;;8.85;1.40;;;5.70;99.90;;;;;;5048833;28;20071;-70
2022/02/11 15:51:09;;;;;;;13.32;1.73;;;5.70;99.90;;;;;;5044963;28;20486;-70
2022/02/11 15:53:34;;;;;;;6.18;1.50;;;5.80;99.90;;;;;;5046639;28;20048;-69
2022/02/11 15:56:01;;;;;;;7.85;1.23;;;5.80;99.90;;;;;;5045655;28;20032;-70
2022/02/11 15:58:27;;;;;;;10.38;1.50;;;5.90;99.90;;;;;;5045714;28;20043;-70
2022/02/11 16:00:52;;;;;;;7.45;1.40;;;5.90;99.90;;;;;;5061370;28;20040;-70
2022/02/11 16:03:18;;;;;;;10.95;2.20;;;5.90;99.90;;;;;;5047440;28;20053;-69
2022/02/11 16:05:44;;;;;;;9.20;1.48;;;5.90;99.90;;;;;;5047334;28;20033;-70
2022/02/11 16:08:10;;;;;;;6.25;1.55;;;5.90;99.90;;;;;;5034300;28;20496;-70
2022/02/11 16:10:35;;;;;;;8.43;1.35;;;5.80;99.90;;;;;;5033683;28;20076;-70
2022/02/11 16:13:01;;;;;;;13.48;1.73;;;5.90;99.90;;;;;;5065430;28;20060;-70
2022/02/11 16:15:26;;;;;;;10.00;1.50;;;5.80;99.90;;;;;;5047725;28;20044;-71
2022/02/11 16:18:03;;;;;;;10.40;1.30;;;5.90;99.90;;;;;;5051617;28;20052;-70
2022/02/11 16:20:44;;;;;;;5.90;1.33;;;5.80;99.90;;;;;;5049868;28;20084;-70
2022/02/11 16:23:13;;;;;;;11.95;3.28;;;5.70;99.90;;;;;;5049403;28;20132;-70
2022/02/11 16:25:39;;;;;;;15.68;4.03;;;5.60;99.90;;;;;;5047530;28;20136;-70
2022/02/11 16:28:06;;;;;;;7.40;2.10;;;5.50;99.90;;;;;;5046885;28;20041;-70
2022/02/11 16:30:32;;;;;;;8.25;1.20;;;5.40;99.90;;;;;;5048310;28;20048;-70
2022/02/11 16:32:59;;;;;;;6.60;1.42;;;5.30;99.90;;;;;;5048779;28;20041;-70
2022/02/11 16:35:24;;;;;;;7.68;1.60;;;5.30;99.90;;;;;;5049528;28;20028;-71